createdAt,value
2019-03-02T00:00:03.483Z,15.20
2019-03-02T00:01:02.246Z,15.40
2019-03-02T00:02:02.219Z,14.30
2019-03-02T00:03:02.197Z,15.00
2019-03-02T00:04:02.176Z,16.20
2019-03-02T00:05:02.187Z,15.10
2019-03-02T00:06:02.243Z,15.10
2019-03-02T00:07:02.135Z,15.00
2019-03-02T00:08:02.103Z,15.30
2019-03-02T00:09:02.088Z,15.40
2019-03-02T00:10:02.075Z,15.80
2019-03-02T00:11:02.029Z,16.00
2019-03-02T00:12:02.048Z,15.70
2019-03-02T00:13:04.002Z,15.70
2019-03-02T00:14:01.969Z,15.50
2019-03-02T00:15:01.945Z,15.70
2019-03-02T00:16:04.338Z,16.40
2019-03-02T00:17:01.919Z,15.90
2019-03-02T00:18:01.885Z,16.00
2019-03-02T00:19:02.946Z,16.30
2019-03-02T00:20:01.841Z,16.60
2019-03-02T00:21:01.836Z,16.40
2019-03-02T00:22:06.330Z,16.10
2019-03-02T00:23:01.787Z,16.50
2019-03-02T00:24:01.757Z,16.50
2019-03-02T00:25:01.737Z,16.70
2019-03-02T00:26:01.752Z,16.90
2019-03-02T00:27:01.690Z,18.00
2019-03-02T00:28:01.676Z,17.00
2019-03-02T00:29:01.657Z,18.10
2019-03-02T00:30:01.631Z,17.60
2019-03-02T00:31:02.557Z,17.60
2019-03-02T00:32:01.585Z,18.00
2019-03-02T00:33:01.571Z,19.10
2019-03-02T00:34:01.543Z,18.30
2019-03-02T00:35:03.819Z,19.30
2019-03-02T00:36:01.502Z,19.30
2019-03-02T00:37:01.500Z,19.50
2019-03-02T00:38:05.010Z,19.20
2019-03-02T00:39:01.659Z,19.20
2019-03-02T00:40:01.428Z,19.00
2019-03-02T00:41:03.715Z,19.50
2019-03-02T00:42:01.398Z,19.60
2019-03-02T00:43:01.357Z,19.60
2019-03-02T00:44:03.844Z,19.00
2019-03-02T00:45:01.315Z,19.60
2019-03-02T00:46:01.290Z,20.20
2019-03-02T00:47:01.275Z,19.50
2019-03-02T00:48:01.267Z,19.50
2019-03-02T00:49:01.226Z,19.60
2019-03-02T00:50:02.436Z,19.50
2019-03-02T00:51:01.185Z,20.40
2019-03-02T00:52:01.168Z,20.10
2019-03-02T00:53:02.095Z,20.30
2019-03-02T00:54:01.147Z,19.60
2019-03-02T00:55:01.107Z,19.90
2019-03-02T00:56:04.177Z,19.90
2019-03-02T00:57:01.060Z,19.60
2019-03-02T00:58:01.041Z,20.10
2019-03-02T00:59:03.933Z,21.10
2019-03-02T01:00:01.013Z,20.50
2019-03-02T01:01:00.983Z,20.90
2019-03-02T01:02:04.438Z,21.20
2019-03-02T01:03:00.946Z,20.60
2019-03-02T01:04:00.917Z,20.80
2019-03-02T01:05:01.596Z,20.70
2019-03-02T01:06:00.873Z,20.90
2019-03-02T01:07:00.850Z,20.90
2019-03-02T01:08:01.045Z,21.30
2019-03-02T01:09:00.808Z,21.40
2019-03-02T01:10:00.810Z,21.00
2019-03-02T01:11:00.784Z,21.80
2019-03-02T01:12:00.750Z,22.00
2019-03-02T01:13:00.725Z,22.60
2019-03-02T01:14:00.707Z,22.80
2019-03-02T01:15:04.976Z,23.10
2019-03-02T01:16:00.676Z,22.30
2019-03-02T01:17:00.639Z,22.20
2019-03-02T01:18:03.764Z,22.50
2019-03-02T01:19:00.606Z,23.60
2019-03-02T01:20:00.593Z,23.20
2019-03-02T01:21:03.917Z,23.80
2019-03-02T01:22:00.539Z,23.30
2019-03-02T01:23:00.514Z,22.40
2019-03-02T01:24:03.266Z,23.60
2019-03-02T01:25:00.473Z,23.30
2019-03-02T01:26:00.471Z,23.40
2019-03-02T01:27:00.610Z,23.10
2019-03-02T01:28:00.468Z,23.20
2019-03-02T01:29:00.393Z,23.00
2019-03-02T01:30:00.366Z,24.00
2019-03-02T01:31:01.746Z,23.80
2019-03-02T01:32:00.338Z,24.30
2019-03-02T01:33:00.298Z,24.30
2019-03-02T01:34:00.727Z,24.00
2019-03-02T01:35:00.320Z,24.20
2019-03-02T01:36:00.238Z,25.10
2019-03-02T01:37:00.223Z,23.80
2019-03-02T01:38:00.211Z,24.40
2019-03-02T01:39:00.176Z,24.10
2019-03-02T01:40:00.856Z,24.00
2019-03-02T01:41:00.138Z,23.60
2019-03-02T01:42:00.111Z,25.00
2019-03-02T01:43:01.944Z,25.00
2019-03-02T01:44:00.072Z,24.10
2019-03-02T01:45:00.049Z,25.20
2019-03-02T01:46:03.275Z,24.80
2019-03-02T01:47:00.020Z,25.70
2019-03-02T01:48:00.008Z,25.10
2019-03-02T01:49:01.550Z,25.70
2019-03-02T01:49:59.946Z,25.10
2019-03-02T01:50:59.933Z,26.00
2019-03-02T01:51:59.932Z,25.10
2019-03-02T01:52:59.882Z,24.60
2019-03-02T01:53:59.886Z,25.30
2019-03-02T01:54:59.844Z,26.40
2019-03-02T01:56:02.788Z,26.30
2019-03-02T01:56:59.798Z,26.80
2019-03-02T01:57:59.787Z,27.30
2019-03-02T01:59:00.614Z,27.80
2019-03-02T01:59:59.761Z,27.40
2019-03-02T02:00:59.722Z,26.50
2019-03-02T02:02:00.056Z,27.40
2019-03-02T02:02:59.677Z,28.00
2019-03-02T02:03:59.655Z,26.80
2019-03-02T02:04:59.639Z,28.00
2019-03-02T02:07:41.539Z,27.40
2019-03-02T02:08:41.533Z,28.50
2019-03-02T02:09:41.557Z,28.90
2019-03-02T02:10:43.433Z,28.50
2019-03-02T02:11:41.463Z,29.60
2019-03-02T02:12:41.436Z,28.90
2019-03-02T02:13:42.843Z,30.80
2019-03-02T02:14:41.392Z,29.80
2019-03-02T02:15:41.389Z,30.70
2019-03-02T02:16:41.819Z,31.10
2019-03-02T02:17:41.347Z,32.10
2019-03-02T02:18:41.307Z,32.70
2019-03-02T02:19:41.290Z,32.10
2019-03-02T02:20:41.265Z,32.60
2019-03-02T02:21:41.240Z,32.40
2019-03-02T02:22:41.222Z,32.90
2019-03-02T02:23:41.224Z,32.90
2019-03-02T02:24:41.189Z,33.40
2019-03-02T02:25:41.156Z,33.70
2019-03-02T02:26:43.979Z,33.00
2019-03-02T02:27:41.114Z,33.30
2019-03-02T02:28:41.115Z,34.40
2019-03-02T02:29:43.515Z,33.10
2019-03-02T02:30:41.052Z,34.50
2019-03-02T02:31:44.981Z,33.50
2019-03-02T02:32:41.017Z,34.10
2019-03-02T02:33:43.455Z,33.60
2019-03-02T02:34:40.999Z,33.30
2019-03-02T02:35:41.783Z,33.50
2019-03-02T02:36:40.924Z,34.30
2019-03-02T02:37:40.931Z,34.10
2019-03-02T02:38:40.888Z,33.20
2019-03-02T02:39:40.869Z,34.20
2019-03-02T02:40:40.844Z,34.10
2019-03-02T02:41:40.826Z,34.90
2019-03-02T02:42:43.347Z,35.10
2019-03-02T02:43:40.801Z,33.80
2019-03-02T02:44:40.765Z,34.10
2019-03-02T02:45:40.747Z,33.70
2019-03-02T02:46:40.725Z,34.80
2019-03-02T02:47:40.707Z,34.00
2019-03-02T02:48:40.701Z,34.10
2019-03-02T02:49:44.519Z,35.10
2019-03-02T02:50:42.950Z,34.40
2019-03-02T02:51:44.341Z,34.40
2019-03-02T02:52:40.599Z,34.50
2019-03-02T02:53:44.915Z,34.80
2019-03-02T02:54:40.578Z,35.00
2019-03-02T02:55:41.271Z,33.90
2019-03-02T02:56:40.529Z,33.70
2019-03-02T02:57:40.495Z,33.20
2019-03-02T02:58:40.481Z,34.10
2019-03-02T02:59:40.466Z,33.60
2019-03-02T03:00:40.472Z,33.70
2019-03-02T03:01:40.417Z,34.70
2019-03-02T03:02:40.391Z,35.40
2019-03-02T03:03:40.370Z,33.20
2019-03-02T03:04:40.362Z,34.40
2019-03-02T03:05:40.329Z,34.60
2019-03-02T03:06:40.325Z,35.20
2019-03-02T03:07:40.286Z,35.50
2019-03-02T03:08:40.263Z,35.60
2019-03-02T03:09:40.268Z,35.50
2019-03-02T03:10:40.223Z,34.20
2019-03-02T03:11:44.288Z,36.10
2019-03-02T03:12:40.183Z,35.00
2019-03-02T03:13:40.670Z,35.80
2019-03-02T03:14:40.140Z,36.20
2019-03-02T03:15:40.134Z,36.00
2019-03-02T03:16:41.081Z,37.20
2019-03-02T03:17:40.071Z,38.80
2019-03-02T03:18:40.056Z,37.40
2019-03-02T03:19:40.032Z,37.30
2019-03-02T03:20:47.822Z,37.30
2019-03-02T03:21:40.007Z,36.50
2019-03-02T03:22:40.870Z,37.70
2019-03-02T03:23:39.951Z,37.70
2019-03-02T03:24:40.832Z,36.60
2019-03-02T03:25:39.911Z,37.00
2019-03-02T03:26:39.904Z,37.50
2019-03-02T03:27:40.669Z,36.40
2019-03-02T03:28:39.863Z,36.20
2019-03-02T03:29:44.621Z,35.80
2019-03-02T03:30:40.219Z,37.00
2019-03-02T03:31:39.803Z,36.60
2019-03-02T03:32:39.762Z,37.30
2019-03-02T03:33:43.665Z,36.30
2019-03-02T03:34:39.718Z,36.90
2019-03-02T03:35:39.701Z,35.90
2019-03-02T03:36:39.685Z,36.80
2019-03-02T03:37:39.675Z,38.30
2019-03-02T03:38:39.643Z,36.10
2019-03-02T03:39:41.785Z,36.00
2019-03-02T03:40:39.592Z,36.50
2019-03-02T03:41:43.465Z,37.40
2019-03-02T03:42:39.569Z,37.60
2019-03-02T03:43:42.558Z,36.40
2019-03-02T03:44:39.505Z,36.50
2019-03-02T03:45:43.282Z,36.50
2019-03-02T03:46:39.465Z,40.70
2019-03-02T03:47:40.462Z,41.30
2019-03-02T03:48:39.442Z,37.80
2019-03-02T03:49:39.403Z,39.20
2019-03-02T03:50:39.381Z,41.00
2019-03-02T03:51:39.373Z,40.20
2019-03-02T03:52:44.125Z,44.70
2019-03-02T03:53:39.341Z,43.90
2019-03-02T03:54:40.908Z,47.50
2019-03-02T03:55:39.286Z,45.30
2019-03-02T03:56:42.509Z,46.50
2019-03-02T03:57:39.230Z,48.20
2019-03-02T03:58:40.014Z,49.60
2019-03-02T03:59:39.213Z,55.40
2019-03-02T04:00:40.365Z,53.30
2019-03-02T04:01:39.169Z,57.90
2019-03-02T04:02:39.130Z,51.50
2019-03-02T04:03:39.617Z,56.00
2019-03-02T04:04:39.102Z,54.20
2019-03-02T04:05:42.081Z,52.10
2019-03-02T04:06:39.049Z,57.20
2019-03-02T04:07:39.026Z,55.40
2019-03-02T04:08:39.010Z,57.10
2019-03-02T04:09:42.925Z,57.50
2019-03-02T04:10:38.956Z,60.80
2019-03-02T04:11:42.087Z,58.70
2019-03-02T04:12:38.935Z,57.70
2019-03-02T04:13:44.142Z,58.30
2019-03-02T04:14:38.877Z,59.30
2019-03-02T04:15:41.561Z,63.20
2019-03-02T04:16:38.835Z,67.50
2019-03-02T04:17:40.633Z,66.50
2019-03-02T04:18:38.807Z,63.30
2019-03-02T04:19:38.782Z,63.80
2019-03-02T04:20:38.752Z,61.00
2019-03-02T04:21:38.744Z,65.90
2019-03-02T04:22:39.932Z,65.40
2019-03-02T04:23:38.692Z,70.50
2019-03-02T04:24:39.677Z,70.10
2019-03-02T04:25:38.643Z,69.80
2019-03-02T04:26:38.769Z,75.40
2019-03-02T04:27:38.622Z,75.60
2019-03-02T04:28:38.590Z,73.10
2019-03-02T04:29:38.574Z,73.90
2019-03-02T04:30:38.543Z,77.90
2019-03-02T04:31:38.516Z,75.00
2019-03-02T04:32:38.512Z,76.30
2019-03-02T04:33:39.236Z,73.50
2019-03-02T04:34:38.453Z,73.80
2019-03-02T04:35:38.432Z,79.10
2019-03-02T04:36:38.413Z,80.00
2019-03-02T04:37:38.408Z,75.40
2019-03-02T04:38:38.376Z,77.50
2019-03-02T04:39:38.370Z,76.90
2019-03-02T04:40:38.334Z,80.00
2019-03-02T04:41:39.684Z,83.20
2019-03-02T04:42:38.296Z,80.50
2019-03-02T04:43:38.261Z,80.50
2019-03-02T04:44:38.239Z,85.20
2019-03-02T04:45:39.742Z,85.10
2019-03-02T04:46:38.198Z,79.50
2019-03-02T04:47:38.177Z,81.80
2019-03-02T04:48:39.302Z,79.50
2019-03-02T04:49:39.099Z,74.50
2019-03-02T04:50:38.113Z,77.50
2019-03-02T04:51:40.217Z,76.70
2019-03-02T04:52:38.075Z,77.20
2019-03-02T04:53:38.058Z,79.20
2019-03-02T04:54:38.602Z,76.60
2019-03-02T04:55:38.006Z,76.50
2019-03-02T04:56:37.985Z,83.10
2019-03-02T04:57:37.987Z,79.20
2019-03-02T04:58:37.964Z,77.30
2019-03-02T04:59:37.946Z,80.70
2019-03-02T05:00:37.909Z,81.40
2019-03-02T05:01:38.871Z,79.00
2019-03-02T05:02:38.595Z,80.40
2019-03-02T05:03:37.855Z,78.30
2019-03-02T05:04:37.819Z,78.70
2019-03-02T05:05:40.624Z,76.40
2019-03-02T05:06:37.773Z,81.40
2019-03-02T05:07:37.757Z,80.50
2019-03-02T05:08:41.153Z,80.40
2019-03-02T05:09:37.713Z,79.50
2019-03-02T05:10:37.704Z,78.30
2019-03-02T05:11:39.426Z,79.20
2019-03-02T05:12:37.663Z,74.60
2019-03-02T05:13:37.649Z,79.90
2019-03-02T05:14:40.217Z,77.30
2019-03-02T05:15:37.582Z,75.00
2019-03-02T05:16:37.573Z,70.60
2019-03-02T05:17:39.776Z,69.70
2019-03-02T05:18:37.520Z,69.40
2019-03-02T05:19:37.516Z,72.50
2019-03-02T05:20:40.954Z,73.40
2019-03-02T05:21:39.829Z,71.30
2019-03-02T05:22:37.438Z,69.70
2019-03-02T05:23:37.419Z,76.20
2019-03-02T05:24:40.505Z,72.50
2019-03-02T05:25:37.395Z,72.70
2019-03-02T05:26:37.353Z,72.20
2019-03-02T05:27:37.330Z,71.30
2019-03-02T05:28:39.560Z,69.80
2019-03-02T05:29:37.295Z,78.10
2019-03-02T05:30:37.270Z,73.80
2019-03-02T05:31:37.622Z,73.80
2019-03-02T05:32:37.228Z,74.30
2019-03-02T05:33:37.208Z,67.30
2019-03-02T05:34:39.723Z,67.10
2019-03-02T05:35:37.165Z,69.10
2019-03-02T05:36:37.147Z,70.40
2019-03-02T05:37:39.253Z,71.40
2019-03-02T05:38:37.098Z,70.30
2019-03-02T05:39:37.085Z,71.60
2019-03-02T05:40:37.061Z,69.00
2019-03-02T05:41:39.325Z,72.00
2019-03-02T05:42:37.020Z,73.30
2019-03-02T05:43:37.012Z,76.10
2019-03-02T05:44:36.985Z,73.90
2019-03-02T05:45:36.957Z,74.10
2019-03-02T05:46:36.933Z,73.70
2019-03-02T05:47:36.916Z,74.50
2019-03-02T05:48:38.971Z,70.30
2019-03-02T05:49:36.877Z,73.20
2019-03-02T05:50:36.852Z,68.60
2019-03-02T05:51:38.875Z,73.90
2019-03-02T05:52:36.810Z,74.60
2019-03-02T05:53:36.789Z,73.30
2019-03-02T05:54:38.631Z,73.50
2019-03-02T05:55:36.761Z,74.10
2019-03-02T05:56:36.733Z,75.20
2019-03-02T05:57:36.998Z,80.00
2019-03-02T05:58:36.682Z,71.60
2019-03-02T05:59:36.660Z,73.50
2019-03-02T06:00:37.676Z,73.10
2019-03-02T06:01:36.817Z,77.90
2019-03-02T06:02:36.601Z,75.20
2019-03-02T06:03:36.586Z,70.30
2019-03-02T06:04:36.556Z,73.90
2019-03-02T06:05:36.555Z,69.70
2019-03-02T06:06:36.516Z,72.10
2019-03-02T06:07:36.494Z,72.30
2019-03-02T06:08:36.479Z,73.00
2019-03-02T06:09:36.467Z,69.40
2019-03-02T06:10:36.431Z,69.10
2019-03-02T06:11:39.341Z,67.20
2019-03-02T06:12:36.386Z,71.40
2019-03-02T06:13:36.376Z,72.70
2019-03-02T06:14:36.377Z,74.70
2019-03-02T06:15:36.398Z,70.00
2019-03-02T06:16:36.307Z,73.00
2019-03-02T06:17:36.283Z,68.70
2019-03-02T06:18:36.291Z,65.00
2019-03-02T06:19:36.249Z,68.60
2019-03-02T06:20:36.754Z,67.90
2019-03-02T06:21:36.197Z,68.10
2019-03-02T06:22:36.181Z,63.10
2019-03-02T06:23:36.157Z,67.20
2019-03-02T06:24:37.664Z,70.50
2019-03-02T06:25:36.124Z,65.90
2019-03-02T06:26:36.749Z,70.90
2019-03-02T06:27:36.066Z,68.60
2019-03-02T06:28:36.074Z,70.90
2019-03-02T06:29:36.029Z,69.60
2019-03-02T06:30:36.012Z,69.70
2019-03-02T06:31:36.022Z,68.10
2019-03-02T06:32:35.971Z,73.50
2019-03-02T06:33:36.650Z,71.90
2019-03-02T06:34:35.944Z,71.90
2019-03-02T06:35:35.920Z,65.20
2019-03-02T06:36:35.886Z,68.00
2019-03-02T06:37:35.864Z,65.80
2019-03-02T06:38:35.843Z,63.00
2019-03-02T06:39:35.843Z,61.60
2019-03-02T06:40:35.819Z,67.90
2019-03-02T06:41:36.608Z,66.70
2019-03-02T06:42:35.761Z,67.40
2019-03-02T06:43:35.737Z,66.40
2019-03-02T06:44:35.714Z,65.70
2019-03-02T06:45:35.694Z,66.90
2019-03-02T06:46:35.689Z,67.80
2019-03-02T06:47:36.649Z,65.60
2019-03-02T06:48:35.633Z,67.60
2019-03-02T06:49:35.617Z,62.60
2019-03-02T06:50:36.785Z,64.10
2019-03-02T06:51:35.588Z,64.20
2019-03-02T06:52:35.557Z,67.00
2019-03-02T06:53:37.162Z,64.80
2019-03-02T06:54:35.497Z,67.20
2019-03-02T06:55:35.482Z,70.70
2019-03-02T06:56:35.916Z,69.30
2019-03-02T06:57:35.465Z,71.90
2019-03-02T06:58:35.417Z,71.70
2019-03-02T06:59:35.815Z,72.40
2019-03-02T07:00:35.378Z,71.20
2019-03-02T07:01:35.352Z,71.80
2019-03-02T07:02:35.872Z,68.20
2019-03-02T07:03:35.316Z,68.60
2019-03-02T07:04:35.294Z,64.20
2019-03-02T07:05:37.208Z,65.60
2019-03-02T07:06:35.250Z,66.80
2019-03-02T07:07:35.227Z,68.40
2019-03-02T07:08:36.379Z,71.70
2019-03-02T07:09:35.190Z,67.10
2019-03-02T07:10:35.194Z,66.60
2019-03-02T07:11:35.145Z,70.10
2019-03-02T07:12:35.126Z,68.80
2019-03-02T07:13:35.105Z,69.30
2019-03-02T07:14:35.080Z,68.60
2019-03-02T07:15:35.078Z,67.70
2019-03-02T07:16:35.048Z,67.60
2019-03-02T07:17:35.018Z,68.70
2019-03-02T07:18:35.002Z,66.60
2019-03-02T07:19:34.996Z,69.20
2019-03-02T07:20:34.953Z,69.30
2019-03-02T07:21:37.630Z,68.60
2019-03-02T07:22:34.935Z,70.80
2019-03-02T07:23:34.898Z,69.50
2019-03-02T07:24:34.877Z,67.80
2019-03-02T07:25:37.063Z,69.70
2019-03-02T07:26:34.831Z,67.40
2019-03-02T07:27:34.813Z,65.50
2019-03-02T07:28:38.865Z,67.40
2019-03-02T07:29:34.773Z,64.10
2019-03-02T07:30:34.753Z,66.50
2019-03-02T07:31:34.749Z,64.60
2019-03-02T07:32:34.712Z,64.40
2019-03-02T07:33:34.689Z,64.80
2019-03-02T07:34:34.668Z,67.40
2019-03-02T07:35:34.647Z,65.10
2019-03-02T07:36:34.914Z,65.80
2019-03-02T07:37:35.403Z,66.60
2019-03-02T07:38:34.597Z,62.10
2019-03-02T07:39:36.510Z,62.80
2019-03-02T07:40:34.541Z,64.60
2019-03-02T07:41:34.522Z,63.50
2019-03-02T07:42:34.839Z,62.90
2019-03-02T07:43:34.480Z,65.20
2019-03-02T07:44:34.462Z,65.80
2019-03-02T07:45:36.337Z,64.50
2019-03-02T07:46:34.416Z,64.30
2019-03-02T07:47:34.403Z,64.20
2019-03-02T07:48:36.706Z,66.70
2019-03-02T07:49:34.363Z,67.20
2019-03-02T07:50:34.333Z,62.70
2019-03-02T07:51:37.841Z,64.70
2019-03-02T07:52:34.291Z,61.90
2019-03-02T07:53:35.153Z,62.60
2019-03-02T07:54:34.258Z,61.80
2019-03-02T07:55:34.231Z,63.70
2019-03-02T07:56:34.207Z,60.10
2019-03-02T07:57:34.189Z,63.10
2019-03-02T07:58:34.168Z,62.20
2019-03-02T07:59:34.163Z,61.30
2019-03-02T08:00:34.127Z,64.20
2019-03-02T08:01:34.107Z,61.20
2019-03-02T08:02:34.089Z,62.10
2019-03-02T08:03:34.083Z,60.00
2019-03-02T08:04:34.941Z,60.50
2019-03-02T08:05:34.046Z,60.20
2019-03-02T08:06:34.011Z,57.80
2019-03-02T08:07:37.609Z,57.30
2019-03-02T08:08:33.963Z,56.10
2019-03-02T08:09:33.940Z,57.80
2019-03-02T08:10:34.868Z,59.30
2019-03-02T08:11:33.901Z,60.40
2019-03-02T08:12:36.691Z,57.50
2019-03-02T08:13:36.477Z,54.10
2019-03-02T08:14:33.832Z,59.60
2019-03-02T08:15:33.819Z,58.70
2019-03-02T08:16:34.530Z,56.90
2019-03-02T08:17:36.626Z,57.30
2019-03-02T08:18:33.749Z,56.90
2019-03-02T08:19:33.733Z,56.90
2019-03-02T08:20:33.709Z,57.20
2019-03-02T08:21:35.847Z,56.20
2019-03-02T08:22:33.667Z,55.80
2019-03-02T08:23:33.654Z,57.80
2019-03-02T08:24:33.636Z,54.40
2019-03-02T08:25:33.606Z,56.00
2019-03-02T08:26:33.605Z,55.00
2019-03-02T08:27:34.635Z,55.30
2019-03-02T08:28:33.547Z,56.00
2019-03-02T08:29:33.531Z,53.40
2019-03-02T08:30:34.198Z,52.30
2019-03-02T08:31:33.485Z,52.00
2019-03-02T08:32:33.481Z,49.20
2019-03-02T08:33:33.752Z,51.00
2019-03-02T08:34:33.418Z,52.70
2019-03-02T08:35:33.403Z,52.70
2019-03-02T08:36:34.366Z,50.40
2019-03-02T08:37:33.383Z,50.00
2019-03-02T08:38:33.336Z,53.00
2019-03-02T08:39:33.320Z,53.00
2019-03-02T08:40:33.298Z,52.60
2019-03-02T08:41:36.634Z,50.50
2019-03-02T08:42:33.276Z,52.70
2019-03-02T08:43:33.255Z,52.80
2019-03-02T08:44:34.970Z,50.40
2019-03-02T08:45:33.195Z,49.80
2019-03-02T08:46:33.169Z,51.40
2019-03-02T08:47:33.152Z,51.60
2019-03-02T08:48:33.132Z,49.70
2019-03-02T08:49:33.153Z,48.00
2019-03-02T08:50:33.088Z,46.40
2019-03-02T08:51:33.075Z,47.70
2019-03-02T08:52:33.048Z,47.80
2019-03-02T08:53:33.037Z,49.20
2019-03-02T08:54:33.023Z,47.70
2019-03-02T08:55:33.624Z,47.80
2019-03-02T08:56:32.970Z,46.50
2019-03-02T08:57:32.948Z,45.80
2019-03-02T08:58:32.946Z,47.70
2019-03-02T08:59:34.710Z,46.40
2019-03-02T09:00:32.906Z,49.00
2019-03-02T09:01:32.865Z,47.80
2019-03-02T09:02:32.840Z,46.30
2019-03-02T09:03:33.762Z,43.90
2019-03-02T09:04:33.093Z,45.00
2019-03-02T09:05:43.642Z,46.00
2019-03-02T09:06:34.686Z,45.70
2019-03-02T09:07:32.742Z,46.40
2019-03-02T09:08:32.726Z,44.80
2019-03-02T09:09:32.707Z,47.50
2019-03-02T09:10:32.678Z,46.90
2019-03-02T09:11:32.672Z,44.50
2019-03-02T09:12:32.651Z,43.50
2019-03-02T09:13:34.649Z,43.80
2019-03-02T09:14:32.592Z,43.20
2019-03-02T09:15:32.579Z,47.00
2019-03-02T09:16:32.576Z,43.70
2019-03-02T09:17:32.551Z,45.20
2019-03-02T09:18:44.249Z,44.70
2019-03-02T09:19:32.498Z,39.90
2019-03-02T09:20:35.757Z,43.50
2019-03-02T09:21:32.453Z,44.60
2019-03-02T09:22:32.432Z,44.40
2019-03-02T09:23:32.783Z,40.40
2019-03-02T09:24:32.395Z,40.90
2019-03-02T09:25:32.378Z,45.30
2019-03-02T09:26:32.357Z,41.70
2019-03-02T09:27:32.330Z,41.30
2019-03-02T09:28:32.311Z,42.50
2019-03-02T09:29:32.312Z,39.10
2019-03-02T09:30:32.272Z,43.00
2019-03-02T09:31:35.030Z,44.00
2019-03-02T09:32:32.251Z,44.50
2019-03-02T09:33:32.206Z,40.10
2019-03-02T09:34:32.188Z,40.60
2019-03-02T09:35:32.177Z,40.40
2019-03-02T09:36:32.183Z,40.20
2019-03-02T09:37:32.151Z,39.90
2019-03-02T09:38:32.120Z,39.60
2019-03-02T09:39:37.337Z,42.60
2019-03-02T09:40:32.114Z,38.00
2019-03-02T09:41:32.058Z,38.10
2019-03-02T09:42:37.933Z,38.80
2019-03-02T09:43:32.008Z,40.30
2019-03-02T09:44:32.736Z,41.50
2019-03-02T09:45:31.988Z,41.30
2019-03-02T09:46:31.957Z,38.30
2019-03-02T09:47:31.944Z,40.90
2019-03-02T09:48:31.934Z,40.40
2019-03-02T09:49:33.857Z,37.50
2019-03-02T09:50:31.889Z,40.00
2019-03-02T09:51:31.867Z,38.10
2019-03-02T09:52:31.834Z,39.20
2019-03-02T09:53:31.814Z,39.90
2019-03-02T09:54:33.911Z,36.80
2019-03-02T09:55:31.793Z,38.60
2019-03-02T09:56:31.759Z,38.60
2019-03-02T09:57:31.760Z,39.10
2019-03-02T09:58:31.721Z,35.80
2019-03-02T09:59:31.694Z,35.90
2019-03-02T10:00:31.676Z,35.50
2019-03-02T10:01:31.658Z,37.30
2019-03-02T10:02:31.652Z,35.90
2019-03-02T10:03:31.620Z,37.60
2019-03-02T10:04:31.600Z,40.10
2019-03-02T10:09:34.558Z,38.60
2019-03-02T10:10:34.522Z,37.10
2019-03-02T10:11:34.500Z,35.20
2019-03-02T10:12:34.482Z,37.20
2019-03-02T10:13:34.482Z,34.80
2019-03-02T10:14:35.114Z,35.70
2019-03-02T10:15:34.618Z,34.80
2019-03-02T10:16:34.405Z,34.60
2019-03-02T10:17:34.951Z,36.30
2019-03-02T10:18:34.359Z,35.70
2019-03-02T10:19:34.363Z,34.90
2019-03-02T10:20:34.325Z,34.50
2019-03-02T10:21:34.307Z,33.20
2019-03-02T10:22:35.360Z,33.70
2019-03-02T10:23:34.291Z,32.40
2019-03-02T10:24:34.259Z,33.90
2019-03-02T10:25:34.250Z,35.00
2019-03-02T10:26:34.214Z,34.10
2019-03-02T10:27:34.191Z,32.70
2019-03-02T10:28:35.333Z,33.30
2019-03-02T10:29:34.152Z,33.80
2019-03-02T10:30:34.155Z,34.40
2019-03-02T10:31:34.112Z,33.10
2019-03-02T10:32:34.094Z,34.70
2019-03-02T10:33:34.073Z,34.60
2019-03-02T10:34:34.057Z,32.70
2019-03-02T10:35:34.054Z,35.80
2019-03-02T10:36:34.026Z,34.80
2019-03-02T10:37:34.171Z,35.50
2019-03-02T10:38:33.981Z,32.50
2019-03-02T10:39:33.969Z,34.30
2019-03-02T10:40:33.959Z,34.90
2019-03-02T10:41:33.920Z,32.00
2019-03-02T10:42:35.938Z,31.50
2019-03-02T10:43:33.883Z,30.30
2019-03-02T10:44:33.870Z,33.70
2019-03-02T10:45:33.846Z,32.30
2019-03-02T10:46:33.850Z,32.60
2019-03-02T10:47:33.811Z,30.70
2019-03-02T10:48:33.789Z,34.90
2019-03-02T10:49:33.771Z,30.40
2019-03-02T10:50:33.840Z,33.10
2019-03-02T10:51:34.014Z,30.10
2019-03-02T10:52:33.717Z,30.50
2019-03-02T10:53:33.720Z,29.50
2019-03-02T10:54:34.846Z,29.10
2019-03-02T10:55:33.656Z,28.30
2019-03-02T10:56:33.643Z,29.80
2019-03-02T10:57:33.633Z,27.20
2019-03-02T10:58:34.635Z,27.90
2019-03-02T10:59:33.581Z,30.00
2019-03-02T11:00:33.572Z,27.50
2019-03-02T11:01:33.553Z,27.90
2019-03-02T11:02:33.542Z,28.30
2019-03-02T11:03:33.534Z,29.50
2019-03-02T11:04:33.492Z,27.50
2019-03-02T11:05:33.492Z,30.50
2019-03-02T11:06:34.121Z,27.70
2019-03-02T11:07:33.438Z,26.90
2019-03-02T11:08:33.419Z,25.70
2019-03-02T11:09:36.408Z,29.30
2019-03-02T11:10:33.414Z,27.90
2019-03-02T11:11:33.697Z,27.00
2019-03-02T11:12:33.350Z,29.30
2019-03-02T11:13:33.332Z,26.20
2019-03-02T11:14:33.338Z,26.90
2019-03-02T11:15:33.299Z,26.50
2019-03-02T11:16:33.293Z,26.60
2019-03-02T11:17:33.261Z,27.40
2019-03-02T11:18:34.631Z,26.90
2019-03-02T11:19:33.234Z,27.20
2019-03-02T11:20:33.205Z,27.40
2019-03-02T11:21:34.615Z,29.80
2019-03-02T11:22:38.618Z,26.10
2019-03-02T11:23:33.162Z,28.90
2019-03-02T11:24:33.135Z,25.40
2019-03-02T11:25:33.116Z,25.00
2019-03-02T11:26:33.108Z,24.30
2019-03-02T11:27:33.100Z,24.90
2019-03-02T11:28:33.068Z,25.70
2019-03-02T11:29:33.044Z,24.40
2019-03-02T11:30:33.029Z,26.20
2019-03-02T11:31:33.033Z,23.00
2019-03-02T11:32:33.025Z,23.00
2019-03-02T11:33:32.979Z,23.80
2019-03-02T11:34:33.807Z,23.00
2019-03-02T11:35:32.945Z,24.70
2019-03-02T11:36:32.982Z,22.70
2019-03-02T11:37:32.910Z,24.20
2019-03-02T11:38:33.533Z,23.50
2019-03-02T11:39:32.880Z,22.80
2019-03-02T11:40:33.152Z,24.20
2019-03-02T11:41:32.836Z,22.70
2019-03-02T11:42:32.826Z,22.90
2019-03-02T11:43:32.841Z,23.80
2019-03-02T11:44:32.790Z,23.00
2019-03-02T11:45:32.773Z,22.40
2019-03-02T11:46:32.753Z,25.80
2019-03-02T11:47:33.032Z,25.10
2019-03-02T11:48:32.719Z,24.00
2019-03-02T11:49:34.801Z,21.90
2019-03-02T11:50:32.684Z,24.40
2019-03-02T11:51:32.669Z,24.60
2019-03-02T11:52:34.963Z,23.80
2019-03-02T11:53:32.631Z,23.00
2019-03-02T11:54:32.632Z,23.90
2019-03-02T11:55:32.614Z,22.40
2019-03-02T11:56:32.582Z,24.60
2019-03-02T11:57:32.561Z,23.70
2019-03-02T11:58:33.490Z,24.70
2019-03-02T11:59:32.527Z,24.10
2019-03-02T12:00:37.681Z,24.10
2019-03-02T12:01:34.103Z,23.50
2019-03-02T12:02:32.490Z,23.70
2019-03-02T12:03:35.256Z,24.50
2019-03-02T12:04:32.444Z,24.80
2019-03-02T12:05:32.428Z,24.40
2019-03-02T12:06:32.415Z,23.90
2019-03-02T12:07:32.406Z,24.20
2019-03-02T12:08:32.454Z,25.20
2019-03-02T12:09:32.356Z,25.70
2019-03-02T12:10:32.339Z,24.00
2019-03-02T12:11:32.333Z,25.20
2019-03-02T12:12:32.327Z,24.70
2019-03-02T12:13:34.761Z,23.50
2019-03-02T12:14:34.558Z,24.80
2019-03-02T12:15:32.258Z,22.90
2019-03-02T12:16:32.235Z,21.40
2019-03-02T12:17:32.224Z,23.10
2019-03-02T12:18:32.227Z,23.90
2019-03-02T12:19:32.188Z,22.70
2019-03-02T12:20:32.195Z,22.40
2019-03-02T12:21:32.159Z,21.40
2019-03-02T12:22:34.399Z,22.30
2019-03-02T12:23:34.094Z,22.10
2019-03-02T12:24:32.100Z,21.90
2019-03-02T12:25:35.140Z,22.40
2019-03-02T12:26:32.069Z,21.40
2019-03-02T12:27:32.056Z,20.60
2019-03-02T12:28:32.963Z,21.30
2019-03-02T12:29:32.033Z,19.90
2019-03-02T12:30:32.020Z,18.90
2019-03-02T12:31:32.857Z,20.10
2019-03-02T12:32:31.975Z,18.00
2019-03-02T12:33:31.955Z,21.60
2019-03-02T12:34:34.594Z,20.10
2019-03-02T12:35:33.914Z,19.30
2019-03-02T12:36:31.916Z,21.00
2019-03-02T12:37:32.906Z,18.50
2019-03-02T12:38:31.878Z,19.50
2019-03-02T12:39:31.883Z,19.40
2019-03-02T12:40:31.880Z,19.80
2019-03-02T12:41:31.838Z,21.30
2019-03-02T12:42:31.964Z,20.40
2019-03-02T12:43:31.810Z,19.50
2019-03-02T12:44:31.798Z,19.40
2019-03-02T12:45:33.681Z,20.00
2019-03-02T12:46:31.758Z,21.10
2019-03-02T12:47:33.314Z,21.50
2019-03-02T12:48:31.728Z,19.70
2019-03-02T12:49:31.720Z,19.40
2019-03-02T12:50:31.702Z,20.30
2019-03-02T12:51:35.180Z,20.60
2019-03-02T12:52:31.687Z,21.60
2019-03-02T12:53:31.655Z,21.90
2019-03-02T12:54:31.635Z,19.90
2019-03-02T12:55:31.634Z,22.50
2019-03-02T12:56:32.896Z,21.30
2019-03-02T12:57:31.583Z,23.20